Aeroporto :
LOGIN :

Iscrizione | Disclaimer

   EN    FR    IT 

 










Sommario :    VFR   VFR Marginale   IFR   IFR Intensivo   IFR Molto Intensivo
Visibilità : 
Base nubi : 
>= 8 km
>= 3000ft
5 / 8 km
1000 / 3000 ft
1500m / 5 km
500 / 1000 ft
800 / 1500m
200 / 500 ft
< 800m
< 200 ft
Simboli :   Temporali  Nebbia  Neve Forte  Precipitazioni Forti  Vento > 20 kt
SIGMETs :   Varie  Temporali  Ghiacco  Turbolenza  Onda orograficha  Ceneri Vulcaniche







- Altitudine del aeroporto : 295 ft
- Codice IATA : ORN


DAOO - Es senia - Oran

ULTIMO METAR :
  • 210500Z 18002KT 3000 BR SCT023 20/19 Q1014

METARs OBSOLETI :
  • 210430Z 18002KT 3000 BR SCT023 20/19 Q1014
  • 210400Z 14002KT 1400 BR SCT023 21/20 Q1014
  • 210330Z 14002KT 3000 BR SCT023 21/20 Q1014
  • 210300Z 14002KT 3000 BR SCT023 21/20 Q1014

TAF TAF DAOO
Valido dal 21 a 06 ore il 22 a 06 ore UTC


210500Z 2106/2206 VRB02KT 1400 BR SCT023
PROB30
TEMPO 2106/2108 0600 FG SCT010
BECMG 2109/2112 03012KT CAVOK
BECMG 2120/2123 VRB02KT
Nessun NOTAM noto per questo aeroporto.
1 SIGMET conosciuto per la FIR Alger (DAAA) :
 
Temporali affogati
DAAA SIGMET 1 VALID 210330/210730 DAMM
DAAA ALGER FIR EMBD TS OBS E OF LINE N3741 E00722 - N3634 E00745 - TOP FL380 MOV E 20KT WKN=



MetMap, La meteo Aeronautica in un colpo d'occhio ! - Copyright ORBIFLY Dicembre 2007 - Disclaimer

ORBIFLY MET'MAP TEAM :

Programmazione e sviluppo : Alexandra Zaïnal
Concezione e sviluppo : Baudouin d'Aumeries
Co-Programmazione e sviluppo : Marc-Olivier Méhu
Supporto tecnico e logistico : Manuel Goepfert
Aiuto per la traduzione : Arnaldo La Scala

Contatto : metmap@orbifly.com




FONTI E CREDITI :

   NOAA